createdAt,value
2019-02-22T00:00:32.757Z,21.82
2019-02-22T00:03:00.697Z,25.27
2019-02-22T00:05:28.384Z,23.20
2019-02-22T00:07:57.290Z,23.00
2019-02-22T00:10:24.985Z,26.52
2019-02-22T00:12:53.291Z,23.50
2019-02-22T00:15:21.156Z,29.75
2019-02-22T00:17:49.100Z,27.55
2019-02-22T00:20:16.817Z,29.65
2019-02-22T00:22:44.726Z,26.52
2019-02-22T00:25:12.630Z,27.50
2019-02-22T00:27:40.466Z,25.27
2019-02-22T00:30:08.531Z,28.85
2019-02-22T00:32:37.380Z,23.22
2019-02-22T00:35:05.477Z,24.05
2019-02-22T00:37:33.230Z,28.35
2019-02-22T00:40:00.939Z,24.37
2019-02-22T00:42:28.935Z,27.67
2019-02-22T00:44:56.770Z,25.85
2019-02-22T00:47:25.034Z,20.72
2019-02-22T00:49:53.784Z,24.72
2019-02-22T00:52:26.307Z,23.35
2019-02-22T00:54:54.435Z,25.68
2019-02-22T00:57:28.337Z,29.65
2019-02-22T00:59:56.310Z,20.17
2019-02-22T01:02:25.315Z,23.10
2019-02-22T01:04:53.215Z,25.10
2019-02-22T01:07:23.261Z,20.17
2019-02-22T01:09:52.227Z,23.77
2019-02-22T01:12:21.283Z,22.67
2019-02-22T01:14:49.289Z,23.77
2019-02-22T01:17:18.236Z,23.87
2019-02-22T01:19:46.140Z,23.50
2019-02-22T01:22:13.835Z,23.22
2019-02-22T01:24:41.881Z,20.72
2019-02-22T01:27:09.777Z,28.47
2019-02-22T01:29:37.616Z,24.02
2019-02-22T01:32:05.482Z,24.37
2019-02-22T01:34:33.278Z,26.85
2019-02-22T01:37:04.983Z,27.30
2019-02-22T01:39:32.763Z,30.23
2019-02-22T01:42:00.514Z,26.40
2019-02-22T01:44:28.415Z,29.92
2019-02-22T01:46:59.631Z,25.40
2019-02-22T01:49:27.628Z,28.05
2019-02-22T01:51:55.363Z,26.40
2019-02-22T01:54:23.173Z,24.00
2019-02-22T01:56:51.150Z,24.63
2019-02-22T01:59:18.938Z,28.35
2019-02-22T02:01:50.590Z,27.62
2019-02-22T02:04:18.477Z,25.68
2019-02-22T02:06:47.320Z,26.33
2019-02-22T02:09:15.410Z,24.05
2019-02-22T02:11:43.242Z,25.30
2019-02-22T02:14:11.086Z,26.57
2019-02-22T02:16:39.025Z,26.50
2019-02-22T02:19:06.828Z,28.55
2019-02-22T02:21:34.693Z,26.68
2019-02-22T02:24:04.010Z,25.55
2019-02-22T02:26:32.365Z,27.95
2019-02-22T02:29:00.371Z,24.75
2019-02-22T02:31:28.069Z,28.60
2019-02-22T02:33:56.069Z,24.67
2019-02-22T02:36:23.874Z,27.13
2019-02-22T02:38:55.484Z,29.45
2019-02-22T02:41:23.292Z,29.05
2019-02-22T02:43:51.299Z,32.55
2019-02-22T02:46:20.372Z,31.12
2019-02-22T02:48:48.186Z,27.30
2019-02-22T02:51:15.997Z,35.28
2019-02-22T02:53:43.688Z,34.13
2019-02-22T02:56:11.736Z,25.77
2019-02-22T02:58:40.885Z,29.45
2019-02-22T03:01:08.693Z,29.00
2019-02-22T03:03:36.382Z,29.87
2019-02-22T03:06:29.669Z,27.35
2019-02-22T03:08:58.559Z,31.57
2019-02-22T03:11:26.383Z,35.90
2019-02-22T03:13:54.051Z,40.45
2019-02-22T03:16:22.103Z,44.13
2019-02-22T03:18:50.048Z,41.02
2019-02-22T03:21:17.822Z,41.55
2019-02-22T03:23:45.826Z,40.33
2019-02-22T03:26:13.547Z,39.18
2019-02-22T03:28:41.470Z,39.75
2019-02-22T03:31:09.690Z,34.92
2019-02-22T03:33:37.638Z,34.58
2019-02-22T03:36:05.827Z,33.10
2019-02-22T03:38:33.808Z,35.15
2019-02-22T03:41:01.579Z,34.43
2019-02-22T03:43:33.147Z,36.58
2019-02-22T03:46:00.981Z,41.08
2019-02-22T03:48:28.967Z,37.33
2019-02-22T03:50:56.726Z,38.80
2019-02-22T03:53:44.693Z,40.52
2019-02-22T03:56:12.531Z,45.28
2019-02-22T03:58:40.481Z,45.67
2019-02-22T04:01:08.269Z,39.78
2019-02-22T04:03:36.633Z,33.48
2019-02-22T04:06:04.550Z,38.90
2019-02-22T04:08:32.312Z,39.85
2019-02-22T04:11:00.147Z,37.93
2019-02-22T04:13:28.095Z,44.55
2019-02-22T04:15:58.626Z,38.88
2019-02-22T04:18:26.686Z,41.63
2019-02-22T04:20:58.619Z,36.15
2019-02-22T04:23:26.493Z,32.85
2019-02-22T04:25:56.886Z,41.73
2019-02-22T04:28:25.122Z,35.68
2019-02-22T04:30:52.832Z,33.18
2019-02-22T04:33:21.865Z,34.08
2019-02-22T04:35:51.910Z,36.38
2019-02-22T04:38:19.919Z,27.80
2019-02-22T04:40:47.652Z,45.85
2019-02-22T04:43:15.594Z,31.77
2019-02-22T04:45:45.529Z,38.55
2019-02-22T04:48:13.688Z,33.90
2019-02-22T04:50:41.610Z,35.52
2019-02-22T04:53:09.291Z,33.35
2019-02-22T04:55:39.625Z,34.00
2019-02-22T04:58:07.688Z,32.63
2019-02-22T05:00:35.718Z,37.33
2019-02-22T05:03:03.544Z,33.20
2019-02-22T05:05:31.642Z,33.10
2019-02-22T05:08:00.102Z,32.05
2019-02-22T05:10:28.995Z,33.58
2019-02-22T05:12:56.677Z,35.20
2019-02-22T05:15:24.862Z,39.30
2019-02-22T05:17:52.693Z,38.55
2019-02-22T05:20:20.375Z,35.65
2019-02-22T05:22:48.430Z,33.90
2019-02-22T05:25:18.106Z,39.23
2019-02-22T05:27:46.200Z,45.92
2019-02-22T05:30:14.052Z,42.05
2019-02-22T05:32:41.766Z,36.10
2019-02-22T05:35:09.985Z,38.78
2019-02-22T05:37:38.061Z,38.45
2019-02-22T05:40:06.041Z,41.70
2019-02-22T05:42:35.033Z,37.30
2019-02-22T05:45:02.842Z,41.98
2019-02-22T05:47:30.757Z,35.10
2019-02-22T05:49:58.546Z,40.10
2019-02-22T05:52:26.534Z,40.48
2019-02-22T05:54:54.905Z,48.63
2019-02-22T05:57:22.625Z,45.70
2019-02-22T05:59:50.498Z,56.23
2019-02-22T06:02:18.388Z,55.05
2019-02-22T06:04:46.250Z,36.05
2019-02-22T06:07:15.323Z,43.58
2019-02-22T06:09:44.358Z,47.93
2019-02-22T06:12:12.299Z,51.63
2019-02-22T06:14:40.113Z,51.10
2019-02-22T06:17:14.559Z,51.95
2019-02-22T06:19:39.288Z,56.28
2019-02-22T06:22:07.134Z,40.63
2019-02-22T06:24:34.859Z,54.60
2019-02-22T06:27:02.754Z,47.05
2019-02-22T06:29:30.594Z,57.88
2019-02-22T06:31:58.523Z,70.22
2019-02-22T06:34:26.299Z,50.65
2019-02-22T06:37:01.763Z,60.92
2019-02-22T06:39:24.180Z,55.20
2019-02-22T06:41:51.899Z,43.78
2019-02-22T06:44:21.426Z,55.92
2019-02-22T06:46:49.386Z,51.65
2019-02-22T06:49:17.195Z,52.25
2019-02-22T06:51:44.883Z,62.40
2019-02-22T06:54:12.916Z,56.40
2019-02-22T06:56:40.913Z,68.12
2019-02-22T06:59:08.657Z,52.88
2019-02-22T07:01:36.579Z,62.17
2019-02-22T07:04:04.384Z,69.37
2019-02-22T07:06:32.311Z,73.17
2019-02-22T07:09:00.176Z,80.65
2019-02-22T07:11:34.786Z,79.20
2019-02-22T07:14:02.829Z,104.05
2019-02-22T07:16:30.718Z,96.17
2019-02-22T07:18:58.407Z,100.78
2019-02-22T07:21:26.514Z,111.37
2019-02-22T07:23:54.271Z,91.65
2019-02-22T07:26:22.204Z,89.90
2019-02-22T07:28:50.127Z,80.22
2019-02-22T07:31:21.130Z,83.97
2019-02-22T07:33:49.098Z,71.20
2019-02-22T07:36:17.011Z,82.55
2019-02-22T07:38:44.810Z,81.40
2019-02-22T07:41:12.684Z,93.87
2019-02-22T07:43:40.562Z,95.67
2019-02-22T07:46:08.373Z,90.70
2019-02-22T07:48:36.274Z,94.22
2019-02-22T07:51:04.114Z,89.95
2019-02-22T07:53:32.042Z,77.82
2019-02-22T07:56:01.865Z,80.97
2019-02-22T07:58:29.825Z,65.25
2019-02-22T08:00:58.827Z,50.67
2019-02-22T08:03:27.662Z,47.53
2019-02-22T08:06:01.819Z,45.80
2019-02-22T08:08:29.932Z,36.40
2019-02-22T08:11:04.021Z,42.15
2019-02-22T08:13:31.808Z,43.90
2019-02-22T08:15:59.533Z,38.20
2019-02-22T08:18:29.512Z,37.85
2019-02-22T08:21:00.079Z,31.65
2019-02-22T08:23:28.122Z,30.62
2019-02-22T08:25:56.009Z,29.05
2019-02-22T08:28:23.805Z,28.40
2019-02-22T08:30:51.646Z,34.43
2019-02-22T08:33:19.499Z,34.13
2019-02-22T08:35:49.190Z,27.37
2019-02-22T08:38:17.330Z,25.50
2019-02-22T08:40:45.240Z,29.45
2019-02-22T08:43:13.750Z,28.40
2019-02-22T08:45:41.483Z,25.80
2019-02-22T08:48:09.169Z,30.12
2019-02-22T08:50:41.275Z,35.45
2019-02-22T08:53:08.998Z,34.45
2019-02-22T08:55:36.981Z,40.43
2019-02-22T08:58:04.686Z,37.50
2019-02-22T09:00:32.708Z,29.87
2019-02-22T09:03:00.531Z,27.80
2019-02-22T09:05:29.163Z,22.67
2019-02-22T09:07:57.032Z,23.75
2019-02-22T09:10:25.051Z,22.52
2019-02-22T09:13:00.162Z,24.65
2019-02-22T09:15:28.896Z,25.77
2019-02-22T09:17:57.001Z,23.40
2019-02-22T09:20:25.902Z,25.48
2019-02-22T09:22:53.690Z,23.32
2019-02-22T09:25:22.569Z,23.02
2019-02-22T09:27:50.351Z,19.20
2019-02-22T09:30:18.157Z,22.87
2019-02-22T09:32:48.688Z,20.25
2019-02-22T09:35:17.636Z,23.30
2019-02-22T09:37:45.424Z,23.57
2019-02-22T09:40:14.867Z,24.80
2019-02-22T09:42:42.739Z,27.22
2019-02-22T09:45:12.811Z,27.93
2019-02-22T09:47:40.920Z,31.90
2019-02-22T09:50:10.084Z,27.48
2019-02-22T09:52:37.874Z,28.40
2019-02-22T09:55:07.613Z,30.35
2019-02-22T09:57:35.664Z,26.33
2019-02-22T10:00:06.000Z,29.23
2019-02-22T10:02:33.669Z,24.40
2019-02-22T10:05:05.116Z,26.93
2019-02-22T10:07:34.121Z,23.05
2019-02-22T10:10:04.754Z,39.15
2019-02-22T10:12:32.415Z,26.17
2019-02-22T10:15:00.610Z,25.88
2019-02-22T10:17:28.413Z,25.23
2019-02-22T10:19:56.381Z,29.00
2019-02-22T10:22:24.177Z,28.87
2019-02-22T10:24:52.094Z,32.60
2019-02-22T10:27:21.979Z,29.87
2019-02-22T10:29:49.808Z,29.90
2019-02-22T10:32:17.725Z,28.32
2019-02-22T10:34:45.630Z,28.42
2019-02-22T10:37:13.471Z,27.13
2019-02-22T10:39:41.375Z,30.10
2019-02-22T10:42:09.211Z,36.30
2019-02-22T10:44:38.217Z,31.42
2019-02-22T10:47:07.372Z,29.27
2019-02-22T10:49:35.168Z,29.27
2019-02-22T10:52:02.922Z,29.10
2019-02-22T10:54:30.995Z,26.40
2019-02-22T10:56:58.803Z,35.00
2019-02-22T10:59:27.649Z,30.10
2019-02-22T11:01:55.794Z,33.00
2019-02-22T11:04:23.619Z,33.70
2019-02-22T11:06:51.600Z,34.30
2019-02-22T11:09:19.344Z,30.77
2019-02-22T11:11:47.068Z,36.30
2019-02-22T11:14:15.109Z,35.28
2019-02-22T11:16:43.019Z,35.65
2019-02-22T11:19:10.956Z,38.15
2019-02-22T11:21:38.765Z,35.10
2019-02-22T11:24:07.302Z,39.48
2019-02-22T11:26:35.666Z,43.05
2019-02-22T11:29:03.601Z,41.70
2019-02-22T11:31:31.309Z,36.90
2019-02-22T11:33:59.123Z,37.67
2019-02-22T11:36:27.190Z,37.48
2019-02-22T11:38:54.967Z,36.90
2019-02-22T11:41:23.286Z,35.98
2019-02-22T11:43:51.132Z,37.28
2019-02-22T11:46:19.080Z,38.33
2019-02-22T11:48:46.865Z,34.90
2019-02-22T11:51:14.790Z,33.85
2019-02-22T11:53:42.588Z,34.83
2019-02-22T11:56:10.676Z,33.73
2019-02-22T11:58:38.715Z,33.73
2019-02-22T12:01:07.890Z,41.10
2019-02-22T12:03:35.944Z,32.28
2019-02-22T12:06:04.216Z,32.95
2019-02-22T12:08:32.373Z,31.02
2019-02-22T12:11:01.005Z,32.53
2019-02-22T12:13:31.800Z,30.77
2019-02-22T12:15:58.826Z,31.37
2019-02-22T12:18:27.027Z,31.23
2019-02-22T12:20:57.397Z,30.90
2019-02-22T12:23:25.258Z,27.95
2019-02-22T12:25:53.038Z,32.00
2019-02-22T12:28:21.036Z,29.72
2019-02-22T12:30:49.819Z,29.92
2019-02-22T12:33:17.930Z,25.77
2019-02-22T12:35:48.484Z,26.97
2019-02-22T12:38:16.707Z,24.98
2019-02-22T12:40:44.779Z,25.40
2019-02-22T12:43:12.577Z,27.25
2019-02-22T12:45:44.991Z,25.55
2019-02-22T12:48:12.844Z,22.93
2019-02-22T12:50:41.104Z,23.40
2019-02-22T12:53:08.803Z,22.65
2019-02-22T12:55:36.509Z,26.87
2019-02-22T12:58:04.303Z,22.13
2019-02-22T13:00:33.167Z,25.92
2019-02-22T13:03:02.370Z,25.65
2019-02-22T13:05:32.371Z,26.30
2019-02-22T13:08:00.266Z,28.38
2019-02-22T13:10:28.226Z,28.30
2019-02-22T13:12:57.676Z,24.35
2019-02-22T13:15:25.353Z,26.77
2019-02-22T13:17:54.674Z,25.27
2019-02-22T13:20:22.679Z,28.05
2019-02-22T13:22:50.340Z,31.33
2019-02-22T13:25:19.045Z,37.98
2019-02-22T13:27:46.908Z,33.85
2019-02-22T13:30:15.492Z,30.92
2019-02-22T13:32:43.540Z,29.37
2019-02-22T13:35:11.621Z,30.15
2019-02-22T13:37:39.701Z,31.82
2019-02-22T13:40:10.349Z,36.00
2019-02-22T13:42:40.829Z,23.55
2019-02-22T13:45:09.465Z,20.55
2019-02-22T13:47:37.359Z,26.37
2019-02-22T13:50:07.953Z,21.93
2019-02-22T13:52:36.084Z,23.20
2019-02-22T13:55:04.847Z,22.42
2019-02-22T13:57:33.299Z,20.43
2019-02-22T14:00:01.055Z,19.30
2019-02-22T14:02:28.988Z,18.85
2019-02-22T14:04:56.897Z,25.12
2019-02-22T14:07:24.602Z,19.62
2019-02-22T14:09:52.582Z,20.85
2019-02-22T14:12:20.369Z,20.60
2019-02-22T14:14:48.290Z,21.42
2019-02-22T14:17:15.992Z,21.33
2019-02-22T14:19:43.973Z,21.90
2019-02-22T14:22:12.005Z,22.42
2019-02-22T14:24:39.716Z,20.82
2019-02-22T14:27:08.005Z,23.27
2019-02-22T14:29:36.754Z,23.42
2019-02-22T14:32:04.494Z,22.62
2019-02-22T14:34:32.902Z,25.40
2019-02-22T14:37:01.740Z,23.07
2019-02-22T14:39:29.778Z,26.60
2019-02-22T14:41:57.708Z,26.45
2019-02-22T14:44:25.411Z,23.87
2019-02-22T14:46:54.905Z,20.37
2019-02-22T14:49:23.280Z,20.72
2019-02-22T14:51:51.723Z,20.65
2019-02-22T14:54:19.890Z,19.32
2019-02-22T14:56:48.043Z,21.70
2019-02-22T14:59:20.065Z,18.67
2019-02-22T15:01:48.290Z,22.65
2019-02-22T15:04:16.619Z,17.80
2019-02-22T15:06:44.314Z,16.93
2019-02-22T15:09:12.480Z,16.00
2019-02-22T15:11:40.288Z,19.48
2019-02-22T15:14:08.162Z,16.15
2019-02-22T15:16:53.961Z,16.17
2019-02-22T15:19:22.378Z,16.70
2019-02-22T15:21:50.225Z,15.55
2019-02-22T15:24:18.009Z,14.25
2019-02-22T15:26:45.921Z,13.60
2019-02-22T15:29:13.724Z,13.62
2019-02-22T15:31:41.650Z,12.93
2019-02-22T15:34:09.502Z,15.25
2019-02-22T15:36:38.226Z,15.05
2019-02-22T15:39:06.204Z,15.88
2019-02-22T15:41:35.696Z,15.50
2019-02-22T15:44:05.770Z,16.27
2019-02-22T15:46:33.883Z,14.40
2019-02-22T15:49:01.605Z,15.88
2019-02-22T15:51:30.433Z,14.20
2019-02-22T15:53:58.127Z,14.28
2019-02-22T15:56:26.053Z,14.28
2019-02-22T15:58:53.714Z,13.60
2019-02-22T16:01:23.671Z,14.70
2019-02-22T16:04:00.074Z,16.25
2019-02-22T16:06:27.763Z,13.28
2019-02-22T16:08:55.639Z,14.83
2019-02-22T16:11:23.599Z,13.83
2019-02-22T16:13:51.835Z,16.23
2019-02-22T16:16:23.173Z,13.93
2019-02-22T16:18:49.476Z,13.55
2019-02-22T16:21:17.829Z,14.60
2019-02-22T16:23:45.635Z,15.90
2019-02-22T16:26:15.944Z,14.10
2019-02-22T16:28:43.925Z,14.40
2019-02-22T16:31:11.963Z,17.95
2019-02-22T16:33:39.953Z,15.70
2019-02-22T16:36:07.643Z,13.83
2019-02-22T16:38:38.586Z,13.40
2019-02-22T16:41:09.294Z,16.23
2019-02-22T16:43:37.164Z,14.05
2019-02-22T16:46:04.872Z,13.62
2019-02-22T16:48:32.912Z,12.33
2019-02-22T16:51:00.843Z,12.18
2019-02-22T16:53:28.685Z,12.40
2019-02-22T16:55:56.395Z,11.97
2019-02-22T16:58:25.199Z,11.48
2019-02-22T17:00:53.122Z,10.38
2019-02-22T17:03:20.913Z,11.68
2019-02-22T17:05:48.640Z,11.60
2019-02-22T17:08:16.697Z,10.00
2019-02-22T17:10:45.406Z,10.30
2019-02-22T17:13:13.210Z,9.80
2019-02-22T17:16:02.329Z,10.38
2019-02-22T17:18:30.255Z,10.85
2019-02-22T17:20:57.936Z,12.13
2019-02-22T17:23:25.620Z,10.20
2019-02-22T17:25:53.536Z,10.88
2019-02-22T17:28:21.280Z,10.30
2019-02-22T17:30:49.281Z,10.82
2019-02-22T17:33:17.390Z,10.30
2019-02-22T17:35:49.005Z,10.35
2019-02-22T17:38:16.878Z,10.13
2019-02-22T17:40:47.301Z,11.28
2019-02-22T17:43:15.034Z,10.70
2019-02-22T17:45:42.971Z,11.50
2019-02-22T17:48:10.761Z,11.68
2019-02-22T17:50:38.902Z,11.35
2019-02-22T17:53:06.578Z,12.55
2019-02-22T17:55:34.830Z,14.90
2019-02-22T17:58:02.666Z,13.88
2019-02-22T18:00:30.582Z,14.00
2019-02-22T18:02:58.548Z,14.83
2019-02-22T18:05:26.711Z,17.35
2019-02-22T18:07:54.617Z,16.12
2019-02-22T18:10:22.382Z,15.10
2019-02-22T18:12:50.326Z,15.15
2019-02-22T18:15:18.111Z,15.78
2019-02-22T18:17:46.077Z,17.27
2019-02-22T18:20:14.304Z,15.20
2019-02-22T18:22:41.976Z,16.32
2019-02-22T18:25:10.541Z,20.10
2019-02-22T18:27:38.928Z,18.98
2019-02-22T18:30:08.088Z,18.50
2019-02-22T18:32:36.125Z,20.10
2019-02-22T18:35:04.425Z,16.93
2019-02-22T18:37:32.182Z,18.98
2019-02-22T18:40:00.309Z,19.42
2019-02-22T18:42:28.337Z,21.12
2019-02-22T18:44:56.299Z,19.98
2019-02-22T18:47:24.151Z,21.10
2019-02-22T18:49:51.957Z,18.82
2019-02-22T18:52:19.633Z,20.32
2019-02-22T18:54:47.740Z,23.00
2019-02-22T18:57:16.818Z,21.77
2019-02-22T18:59:45.903Z,24.00
2019-02-22T19:02:14.618Z,21.07
2019-02-22T19:04:42.433Z,21.02
2019-02-22T19:07:15.324Z,25.62
2019-02-22T19:09:43.080Z,24.65
2019-02-22T19:12:16.372Z,20.43
2019-02-22T19:14:44.115Z,23.65
2019-02-22T19:17:12.110Z,23.92
2019-02-22T19:19:39.850Z,25.05
2019-02-22T19:22:07.799Z,24.05
2019-02-22T19:24:37.263Z,25.85
2019-02-22T19:27:05.198Z,27.85
2019-02-22T19:29:33.035Z,24.65
2019-02-22T19:32:02.114Z,26.30
2019-02-22T19:34:29.815Z,27.87
2019-02-22T19:36:57.479Z,26.00
2019-02-22T19:39:25.322Z,24.15
2019-02-22T19:41:54.353Z,27.20
2019-02-22T19:44:22.304Z,27.45
2019-02-22T19:46:51.391Z,26.40
2019-02-22T19:49:19.875Z,28.00
2019-02-22T19:51:51.403Z,26.93
2019-02-22T19:54:19.110Z,24.60
2019-02-22T19:56:46.800Z,27.95
2019-02-22T19:59:14.817Z,26.02
2019-02-22T20:01:44.694Z,25.95
2019-02-22T20:04:12.570Z,31.25
2019-02-22T20:06:40.296Z,27.65
2019-02-22T20:09:08.828Z,26.80
2019-02-22T20:11:37.057Z,27.45
2019-02-22T20:14:04.792Z,26.50
2019-02-22T20:16:38.079Z,26.57
2019-02-22T20:19:05.949Z,27.77
2019-02-22T20:21:33.782Z,28.62
2019-02-22T20:24:01.668Z,26.62
2019-02-22T20:26:29.408Z,24.43
2019-02-22T20:28:59.030Z,26.48
2019-02-22T20:31:26.833Z,26.20
2019-02-22T20:33:55.190Z,21.77
2019-02-22T20:36:28.571Z,23.15
2019-02-22T20:38:53.050Z,20.90
2019-02-22T20:41:21.233Z,19.25
2019-02-22T20:43:50.630Z,17.87
2019-02-22T20:46:18.516Z,17.48
2019-02-22T20:48:48.036Z,17.92
2019-02-22T20:51:16.738Z,16.80
2019-02-22T20:53:47.506Z,20.35
2019-02-22T20:56:15.371Z,16.97
2019-02-22T20:58:43.243Z,18.50
2019-02-22T21:01:14.793Z,15.03
2019-02-22T21:03:41.361Z,15.68
2019-02-22T21:06:09.242Z,16.17
2019-02-22T21:08:37.193Z,16.20
2019-02-22T21:11:06.188Z,16.23
2019-02-22T21:13:34.155Z,22.80
2019-02-22T21:16:01.876Z,17.92
2019-02-22T21:18:30.338Z,15.88
2019-02-22T21:20:58.009Z,17.02
2019-02-22T21:23:26.015Z,14.35
2019-02-22T21:25:53.943Z,14.53
2019-02-22T21:28:21.791Z,15.80
2019-02-22T21:30:49.531Z,17.77
2019-02-22T21:33:17.480Z,15.45
2019-02-22T21:35:47.056Z,13.83
2019-02-22T21:38:15.240Z,12.53
2019-02-22T21:40:42.939Z,15.00
2019-02-22T21:43:10.921Z,16.48
2019-02-22T21:45:38.847Z,14.10
2019-02-22T21:48:06.658Z,13.88
2019-02-22T21:50:34.587Z,15.48
2019-02-22T21:53:02.758Z,14.07
2019-02-22T21:55:30.748Z,17.37
2019-02-22T21:58:00.599Z,14.50
2019-02-22T22:00:28.553Z,20.82
2019-02-22T22:02:56.307Z,16.82
2019-02-22T22:05:24.372Z,17.02
2019-02-22T22:07:52.062Z,15.70
2019-02-22T22:10:19.980Z,19.65
2019-02-22T22:12:47.934Z,17.92
2019-02-22T22:15:16.277Z,19.73
2019-02-22T22:17:43.968Z,16.27
2019-02-22T22:20:11.960Z,16.50
2019-02-22T22:22:40.654Z,15.98
2019-02-22T22:25:09.234Z,16.32
2019-02-22T22:27:37.753Z,13.05
2019-02-22T22:30:06.942Z,11.05
2019-02-22T22:32:34.911Z,9.90
2019-02-22T22:35:02.851Z,6.65
2019-02-22T22:37:32.031Z,4.10
2019-02-22T22:39:59.693Z,2.98
2019-02-22T22:42:28.026Z,2.77
2019-02-22T22:44:56.320Z,1.85
2019-02-22T22:47:25.002Z,2.20
2019-02-22T22:49:52.935Z,4.17
2019-02-22T22:52:21.648Z,2.42
2019-02-22T22:54:50.226Z,3.75
2019-02-22T22:57:18.057Z,3.02
2019-02-22T22:59:47.602Z,2.60
2019-02-22T23:02:16.218Z,2.37
2019-02-22T23:04:45.384Z,4.17
2019-02-22T23:07:14.083Z,6.72
2019-02-22T23:09:42.348Z,3.85
2019-02-22T23:12:10.642Z,3.40
2019-02-22T23:14:38.315Z,2.42
2019-02-22T23:17:06.790Z,2.95
2019-02-22T23:19:35.443Z,1.90
2019-02-22T23:22:04.144Z,2.75
2019-02-22T23:24:32.426Z,1.75
2019-02-22T23:27:06.413Z,1.02
2019-02-22T23:29:37.159Z,1.12
2019-02-22T23:32:05.352Z,1.27
2019-02-22T23:34:33.239Z,1.20
2019-02-22T23:37:01.028Z,1.20
2019-02-22T23:39:29.015Z,1.37
2019-02-22T23:41:57.318Z,1.45
2019-02-22T23:44:25.107Z,1.45
2019-02-22T23:46:52.957Z,1.20
2019-02-22T23:49:20.843Z,1.42
2019-02-22T23:51:49.907Z,1.50
2019-02-22T23:54:17.795Z,1.17
2019-02-22T23:56:45.603Z,1.72
2019-02-22T23:59:13.561Z,1.60
